Time;durP1;ratioP1;P1;durP2;ratioP2;P2;SDS_P1;SDS_P2;PMS_P1;PMS_P2;Temp;Humidity;BMP_temperature;BMP_pressure;BME280_temperature;BME280_humidity;BME280_pressure;Samples;Min_cycle;Max_cycle;Signal;HPM_P1;HPM_P2
2021/11/19 00:02:02;;;;;;;8.75;5.80;;;;;;;;;;4496220;28;20030;-62
2021/11/19 00:04:12;;;;;;;10.85;6.53;;;;;;;;;;4495343;28;20030;-62
2021/11/19 00:06:23;;;;;;;10.67;6.33;;;;;;;;;;4483352;28;20027;-62
2021/11/19 00:08:34;;;;;;;9.30;5.97;;;;;;;;;;4493554;28;20021;-62
2021/11/19 00:10:44;;;;;;;7.60;5.83;;;;;;;;;;4476564;28;20027;-62
2021/11/19 00:12:54;;;;;;;10.30;6.37;;;;;;;;;;4493483;28;20486;-61
2021/11/19 00:15:07;;;;;;;9.90;6.33;;;;;;;;;;4494698;28;20029;-63
2021/11/19 00:17:17;;;;;;;9.35;6.78;;;;;;;;;;4495962;28;20037;-62
2021/11/19 00:19:28;;;;;;;9.30;6.63;;;;;;;;;;4494220;28;20069;-62
2021/11/19 00:21:39;;;;;;;10.67;6.83;;;;;;;;;;4481700;28;20139;-62
2021/11/19 00:23:51;;;;;;;10.48;6.55;;;;;;;;;;4483354;28;20022;-62
2021/11/19 00:26:02;;;;;;;11.75;6.82;;;;;;;;;;4493473;28;20026;-62
2021/11/19 00:28:14;;;;;;;10.13;6.85;;;;;;;;;;4493398;28;20658;-62
2021/11/19 00:30:26;;;;;;;10.75;6.80;;;;;;;;;;4478592;28;20062;-62
2021/11/19 00:32:37;;;;;;;9.50;6.53;;;;;;;;;;4480531;28;20054;-62
2021/11/19 00:34:48;;;;;;;10.55;7.00;;;;;;;;;;4458589;28;20586;-62
2021/11/19 00:37:00;;;;;;;10.35;6.82;;;;;;;;;;4493601;28;20611;-62
2021/11/19 00:39:14;;;;;;;10.50;6.68;;;;;;;;;;4470553;28;20047;-62
2021/11/19 00:41:26;;;;;;;9.68;6.28;;;;;;;;;;4466904;28;20019;-62
2021/11/19 00:43:37;;;;;;;11.57;7.03;;;;;;;;;;4470583;28;20651;-62
2021/11/19 00:45:48;;;;;;;9.98;6.70;;;;;;;;;;4493448;28;20030;-62
2021/11/19 00:48:00;;;;;;;9.30;6.15;;;;;;;;;;4476132;28;20304;-62
2021/11/19 00:50:11;;;;;;;9.73;6.20;;;;;;;;;;4477511;28;20090;-62
2021/11/19 00:52:23;;;;;;;10.63;6.50;;;;;;;;;;4494509;28;20026;-63
2021/11/19 00:54:34;;;;;;;;;;;;;;;;;;4477659;28;20029;-62
2021/11/19 00:56:51;;;;;;;11.32;7.25;;;;;;;;;;4494195;28;19925;-62
2021/11/19 00:59:03;;;;;;;9.77;6.15;;;;;;;;;;4493975;28;20056;-62
2021/11/19 01:01:15;;;;;;;;;;;;;;;;;;4495367;28;20116;-62
2021/11/19 01:03:27;;;;;;;9.80;6.45;;;;;;;;;;4477716;28;19906;-62
2021/11/19 01:05:38;;;;;;;10.13;6.60;;;;;;;;;;4492856;28;20172;-62
2021/11/19 01:07:48;;;;;;;8.40;6.20;;;;;;;;;;4495719;28;20019;-63
2021/11/19 01:10:08;;;;;;;10.33;6.93;;;;;;;;;;4478000;28;20573;-62
2021/11/19 01:12:22;;;;;;;10.07;6.68;;;;;;;;;;4478487;28;20065;-62
2021/11/19 01:14:40;;;;;;;9.27;6.05;;;;;;;;;;4485723;28;20027;-62
2021/11/19 01:16:56;;;;;;;9.23;6.40;;;;;;;;;;4492867;28;20037;-62
2021/11/19 01:19:11;;;;;;;8.77;6.20;;;;;;;;;;4478846;28;20039;-62
2021/11/19 01:21:30;;;;;;;8.73;6.00;;;;;;;;;;4493407;28;20026;-62
2021/11/19 01:23:42;;;;;;;9.68;6.55;;;;;;;;;;4494831;28;20132;-62
2021/11/19 01:26:07;;;;;;;10.32;6.38;;;;;;;;;;4492779;28;20165;-62
2021/11/19 01:28:18;;;;;;;9.40;6.45;;;;;;;;;;4483775;28;20031;-62
2021/11/19 01:30:44;;;;;;;11.33;6.90;;;;;;;;;;4495634;28;20039;-62
2021/11/19 01:32:55;;;;;;;8.95;6.25;;;;;;;;;;4476242;28;20099;-62
2021/11/19 01:35:27;;;;;;;9.68;6.28;;;;;;;;;;4478110;28;20026;-62
2021/11/19 01:38:04;;;;;;;9.95;6.30;;;;;;;;;;4481140;28;20045;-62
2021/11/19 01:40:30;;;;;;;10.32;6.35;;;;;;;;;;4491885;28;20041;-62
2021/11/19 01:42:52;;;;;;;8.95;6.15;;;;;;;;;;4483234;28;20101;-62
2021/11/19 01:45:05;;;;;;;9.07;6.40;;;;;;;;;;4476233;28;20034;-62
2021/11/19 01:47:16;;;;;;;9.15;6.43;;;;;;;;;;4493224;28;20072;-62
2021/11/19 01:49:28;;;;;;;10.07;7.07;;;;;;;;;;4491811;28;20084;-61
2021/11/19 01:51:56;;;;;;;8.70;6.05;;;;;;;;;;4460555;28;20027;-62
2021/11/19 01:54:14;;;;;;;9.63;6.50;;;;;;;;;;4496363;28;20026;-62
2021/11/19 01:56:35;;;;;;;9.27;6.47;;;;;;;;;;4482689;28;20643;-62
2021/11/19 01:58:51;;;;;;;8.45;5.70;;;;;;;;;;4485513;28;21253;-62
2021/11/19 02:01:12;;;;;;;9.70;6.53;;;;;;;;;;4492888;28;20022;-62
2021/11/19 02:03:27;;;;;;;8.50;5.80;;;;;;;;;;4469230;28;20038;-62
2021/11/19 02:05:54;;;;;;;8.85;5.70;;;;;;;;;;4484021;28;20791;-62
2021/11/19 02:08:12;;;;;;;7.18;4.90;;;;;;;;;;4475292;28;20049;-62
2021/11/19 02:10:44;;;;;;;8.73;5.57;;;;;;;;;;4485652;28;20092;-62
2021/11/19 02:13:06;;;;;;;7.05;4.63;;;;;;;;;;4491927;28;20030;-62
2021/11/19 02:15:22;;;;;;;7.20;4.63;;;;;;;;;;4463864;28;20046;-62
2021/11/19 02:17:33;;;;;;;6.88;4.43;;;;;;;;;;4482692;28;20018;-62
2021/11/19 02:19:56;;;;;;;6.17;4.43;;;;;;;;;;4478042;28;20050;-63
2021/11/19 02:22:18;;;;;;;6.15;4.30;;;;;;;;;;4477456;28;20054;-62
2021/11/19 02:24:33;;;;;;;5.45;4.03;;;;;;;;;;4491693;28;20279;-62
2021/11/19 02:27:02;;;;;;;5.50;3.80;;;;;;;;;;4490952;28;21038;-62
2021/11/19 02:29:13;;;;;;;4.88;3.88;;;;;;;;;;4493356;28;20069;-62
2021/11/19 02:31:30;;;;;;;6.53;4.47;;;;;;;;;;4495779;28;20535;-62
2021/11/19 02:33:46;;;;;;;6.80;4.22;;;;;;;;;;4460202;28;20039;-62
2021/11/19 02:36:07;;;;;;;5.25;4.13;;;;;;;;;;4481201;28;20886;-62
2021/11/19 02:38:23;;;;;;;6.13;4.63;;;;;;;;;;4480574;28;21030;-62
2021/11/19 02:40:37;;;;;;;6.47;4.40;;;;;;;;;;4486438;28;20050;-62
2021/11/19 02:42:51;;;;;;;5.47;4.35;;;;;;;;;;4469560;28;20621;-62
2021/11/19 02:45:16;;;;;;;6.68;4.55;;;;;;;;;;4496670;28;20059;-62
2021/11/19 02:47:30;;;;;;;6.20;4.30;;;;;;;;;;4494453;28;20030;-62
2021/11/19 02:49:41;;;;;;;5.97;4.35;;;;;;;;;;4497878;28;20037;-62
2021/11/19 02:51:52;;;;;;;6.32;4.47;;;;;;;;;;4466725;28;20030;-62
2021/11/19 02:54:10;;;;;;;6.07;4.55;;;;;;;;;;4486068;28;20149;-62
2021/11/19 02:56:22;;;;;;;5.72;4.30;;;;;;;;;;4472436;28;20042;-62
2021/11/19 02:58:36;;;;;;;6.18;4.53;;;;;;;;;;4495850;28;20125;-61
2021/11/19 03:01:00;;;;;;;6.20;4.68;;;;;;;;;;4479594;28;21293;-62
2021/11/19 03:03:10;;;;;;;5.55;4.00;;;;;;;;;;4495728;28;20049;-62
2021/11/19 03:05:23;;;;;;;5.97;4.43;;;;;;;;;;4468201;28;20035;-62
2021/11/19 03:07:33;;;;;;;6.18;4.50;;;;;;;;;;4495029;28;20034;-63
2021/11/19 03:09:52;;;;;;;6.20;4.40;;;;;;;;;;4493605;28;20025;-62
2021/11/19 03:12:04;;;;;;;5.25;3.95;;;;;;;;;;4495274;28;20035;-62
2021/11/19 03:14:17;;;;;;;6.03;4.20;;;;;;;;;;4478672;28;20550;-62
2021/11/19 03:16:27;;;;;;;5.00;4.00;;;;;;;;;;4495778;28;20030;-62
2021/11/19 03:18:38;;;;;;;5.38;4.15;;;;;;;;;;4496262;28;20982;-62
2021/11/19 03:20:52;;;;;;;6.03;4.10;;;;;;;;;;4485573;28;20065;-62
2021/11/19 03:23:03;;;;;;;5.60;3.92;;;;;;;;;;4484805;28;20019;-62
2021/11/19 03:25:17;;;;;;;4.43;3.42;;;;;;;;;;4479890;28;20081;-62
2021/11/19 03:27:29;;;;;;;4.95;3.88;;;;;;;;;;4494875;28;20030;-62
2021/11/19 03:29:51;;;;;;;5.03;3.40;;;;;;;;;;4463646;28;20023;-62
2021/11/19 03:32:01;;;;;;;4.90;3.35;;;;;;;;;;4484547;28;20566;-62
2021/11/19 03:34:13;;;;;;;4.20;3.50;;;;;;;;;;4493185;28;20026;-62
2021/11/19 03:36:24;;;;;;;4.18;3.10;;;;;;;;;;4471387;28;20929;-62
2021/11/19 03:38:38;;;;;;;4.05;3.53;;;;;;;;;;4485607;28;20094;-62
2021/11/19 03:40:49;;;;;;;3.63;2.97;;;;;;;;;;4493828;28;20113;-62
2021/11/19 03:43:00;;;;;;;4.20;3.20;;;;;;;;;;4479053;28;20018;-62
2021/11/19 03:45:16;;;;;;;3.90;3.25;;;;;;;;;;4494618;28;20102;-62
2021/11/19 03:47:31;;;;;;;4.70;3.50;;;;;;;;;;4484863;28;20129;-62
2021/11/19 03:49:43;;;;;;;4.50;3.50;;;;;;;;;;4494980;28;20118;-62
2021/11/19 03:51:58;;;;;;;4.72;3.38;;;;;;;;;;4495105;28;20568;-62
2021/11/19 03:54:11;;;;;;;3.33;3.03;;;;;;;;;;4486380;28;20027;-62
2021/11/19 03:56:22;;;;;;;3.72;3.22;;;;;;;;;;4467633;28;20042;-62
2021/11/19 03:58:34;;;;;;;4.47;3.45;;;;;;;;;;4461113;28;20648;-61
2021/11/19 04:00:57;;;;;;;4.30;3.55;;;;;;;;;;4479582;28;20030;-62
2021/11/19 04:03:10;;;;;;;4.68;3.72;;;;;;;;;;4478006;28;20022;-63
2021/11/19 04:05:24;;;;;;;4.68;3.83;;;;;;;;;;4462196;28;20577;-62
2021/11/19 04:07:36;;;;;;;5.13;3.70;;;;;;;;;;4495802;28;20122;-62
2021/11/19 04:09:49;;;;;;;4.72;3.92;;;;;;;;;;4493600;28;20018;-62
2021/11/19 04:12:00;;;;;;;;;;;;;;;;;;4494540;28;20134;-62
2021/11/19 04:14:11;;;;;;;5.80;4.30;;;;;;;;;;4484215;28;19902;-62
2021/11/19 04:16:34;;;;;;;5.15;4.05;;;;;;;;;;4476771;28;20022;-61
2021/11/19 04:18:45;;;;;;;5.30;4.00;;;;;;;;;;4496664;28;20478;-62
2021/11/19 04:20:57;;;;;;;5.60;4.05;;;;;;;;;;4462636;28;20023;-61
2021/11/19 04:23:08;;;;;;;4.95;3.67;;;;;;;;;;4494839;28;20030;-62
2021/11/19 04:25:21;;;;;;;5.28;4.10;;;;;;;;;;4487795;28;20026;-62
2021/11/19 04:27:34;;;;;;;5.57;4.22;;;;;;;;;;4495160;28;20125;-62
2021/11/19 04:29:54;;;;;;;4.03;3.60;;;;;;;;;;4466500;28;20030;-61
2021/11/19 04:32:10;;;;;;;4.55;3.83;;;;;;;;;;4486567;28;20102;-61
2021/11/19 04:34:22;;;;;;;5.40;4.05;;;;;;;;;;4495580;28;20030;-61
2021/11/19 04:36:33;;;;;;;4.97;3.97;;;;;;;;;;4479035;28;20479;-61
2021/11/19 04:38:44;;;;;;;4.55;3.67;;;;;;;;;;4493733;28;20030;-61
2021/11/19 04:40:55;;;;;;;5.80;4.10;;;;;;;;;;4479522;28;20030;-62
2021/11/19 04:43:10;;;;;;;6.18;4.03;;;;;;;;;;4495182;28;21010;-61
2021/11/19 04:45:24;;;;;;;5.93;4.28;;;;;;;;;;4495480;28;20073;-61
2021/11/19 04:47:34;;;;;;;5.32;3.90;;;;;;;;;;4483345;28;20034;-61
2021/11/19 04:49:46;;;;;;;;;;;;;;;;;;4477792;28;20652;-62
2021/11/19 04:51:57;;;;;;;5.95;4.03;;;;;;;;;;4484158;28;20023;-62
2021/11/19 04:54:10;;;;;;;5.32;4.10;;;;;;;;;;4493657;28;20470;-62
2021/11/19 04:56:22;;;;;;;4.78;3.80;;;;;;;;;;4460725;28;20098;-61
2021/11/19 04:58:32;;;;;;;5.72;4.60;;;;;;;;;;4476615;28;20045;-62
2021/11/19 05:00:49;;;;;;;5.90;3.77;;;;;;;;;;4477672;28;20029;-62
2021/11/19 05:03:07;;;;;;;5.00;3.78;;;;;;;;;;4494549;28;20030;-61
2021/11/19 05:05:23;;;;;;;5.15;4.10;;;;;;;;;;4482905;28;20641;-61
2021/11/19 05:07:34;;;;;;;7.25;5.65;;;;;;;;;;4492955;28;20093;-62
2021/11/19 05:09:44;;;;;;;7.32;5.00;;;;;;;;;;4494096;28;20693;-61
2021/11/19 05:12:08;;;;;;;5.55;4.15;;;;;;;;;;4477488;28;20085;-62
2021/11/19 05:14:21;;;;;;;5.20;4.07;;;;;;;;;;4492991;28;20018;-62
2021/11/19 05:16:33;;;;;;;5.35;4.03;;;;;;;;;;4483657;28;20030;-62
2021/11/19 05:18:45;;;;;;;5.38;4.30;;;;;;;;;;4463663;28;20042;-61
2021/11/19 05:20:56;;;;;;;5.40;4.13;;;;;;;;;;4486052;28;20170;-61
2021/11/19 05:23:07;;;;;;;5.22;3.83;;;;;;;;;;4476880;28;20026;-62
2021/11/19 05:25:22;;;;;;;5.30;4.10;;;;;;;;;;4494296;28;20030;-62
2021/11/19 05:27:33;;;;;;;5.43;4.03;;;;;;;;;;4494009;28;20030;-62
2021/11/19 05:29:44;;;;;;;5.07;4.00;;;;;;;;;;4476181;28;20014;-61
2021/11/19 05:31:55;;;;;;;5.47;4.00;;;;;;;;;;4483293;28;20027;-61
2021/11/19 05:34:07;;;;;;;5.22;3.95;;;;;;;;;;4492352;28;20031;-62
2021/11/19 05:36:18;;;;;;;4.72;3.97;;;;;;;;;;4483527;28;20019;-62
2021/11/19 05:38:29;;;;;;;5.40;3.88;;;;;;;;;;4461520;28;20102;-62
2021/11/19 05:40:40;;;;;;;4.18;3.45;;;;;;;;;;4483928;28;20018;-62
2021/11/19 05:42:52;;;;;;;4.68;3.80;;;;;;;;;;4483444;28;20029;-62
2021/11/19 05:45:05;;;;;;;6.70;4.90;;;;;;;;;;4477054;28;20027;-61
2021/11/19 05:47:38;;;;;;;5.63;4.03;;;;;;;;;;4480635;28;20060;-62
2021/11/19 05:50:00;;;;;;;5.88;4.10;;;;;;;;;;4493246;28;20124;-62
2021/11/19 05:52:11;;;;;;;5.78;4.20;;;;;;;;;;4494640;28;20023;-62
2021/11/19 05:54:24;;;;;;;5.72;4.32;;;;;;;;;;4465585;28;20038;-61
2021/11/19 05:56:35;;;;;;;5.95;4.40;;;;;;;;;;4498894;28;20148;-61
2021/11/19 05:58:46;;;;;;;6.32;4.50;;;;;;;;;;4466832;28;20027;-63
2021/11/19 06:01:09;;;;;;;5.10;4.00;;;;;;;;;;4493937;28;20034;-63
2021/11/19 06:03:27;;;;;;;5.50;4.20;;;;;;;;;;4480684;28;20039;-62
2021/11/19 06:05:50;;;;;;;4.93;3.95;;;;;;;;;;4480740;28;20077;-62
2021/11/19 06:08:08;;;;;;;5.22;3.80;;;;;;;;;;4481508;28;20502;-62
2021/11/19 06:10:24;;;;;;;5.17;4.17;;;;;;;;;;4493698;28;20361;-62
2021/11/19 06:12:58;;;;;;;4.88;4.10;;;;;;;;;;4497041;28;20033;-62
2021/11/19 06:15:18;;;;;;;4.70;3.85;;;;;;;;;;4497062;28;20076;-62
2021/11/19 06:17:33;;;;;;;4.80;3.83;;;;;;;;;;4479059;28;20578;-62
2021/11/19 06:19:49;;;;;;;4.50;3.67;;;;;;;;;;4472652;28;20175;-62
2021/11/19 06:22:07;;;;;;;5.75;4.18;;;;;;;;;;4495400;28;20037;-63
2021/11/19 06:24:26;;;;;;;4.80;3.83;;;;;;;;;;4495841;28;20172;-62
2021/11/19 06:26:39;;;;;;;5.43;3.90;;;;;;;;;;4495700;28;20033;-62
2021/11/19 06:28:52;;;;;;;4.32;3.88;;;;;;;;;;4495939;28;20026;-62
2021/11/19 06:31:02;;;;;;;5.38;4.10;;;;;;;;;;4497659;28;20029;-62
2021/11/19 06:33:14;;;;;;;5.65;4.07;;;;;;;;;;4479202;28;20030;-63
2021/11/19 06:35:25;;;;;;;5.32;4.32;;;;;;;;;;4495968;28;20030;-63
2021/11/19 06:37:36;;;;;;;5.25;4.10;;;;;;;;;;4471699;28;20610;-62
2021/11/19 06:40:10;;;;;;;5.72;3.95;;;;;;;;;;4483085;28;20057;-62
2021/11/19 06:42:40;;;;;;;3.92;3.53;;;;;;;;;;4496431;28;20030;-62
2021/11/19 06:45:11;;;;;;;4.78;3.70;;;;;;;;;;4496561;28;20042;-62
2021/11/19 06:47:43;;;;;;;4.68;3.65;;;;;;;;;;4496265;28;20031;-64
2021/11/19 06:50:22;;;;;;;5.25;4.18;;;;;;;;;;4470878;28;20184;-61
2021/11/19 06:53:05;;;;;;;4.05;3.65;;;;;;;;;;4471257;28;20045;-63
2021/11/19 06:55:44;;;;;;;5.03;4.03;;;;;;;;;;4470461;28;20055;-62
2021/11/19 06:58:28;;;;;;;4.93;3.95;;;;;;;;;;4495285;28;20048;-62
2021/11/19 07:00:42;;;;;;;5.15;4.03;;;;;;;;;;4488177;28;20092;-62
2021/11/19 07:02:53;;;;;;;4.47;3.55;;;;;;;;;;4496599;28;20145;-63
2021/11/19 07:05:04;;;;;;;4.90;3.97;;;;;;;;;;4496176;28;20029;-63
2021/11/19 07:07:15;;;;;;;4.03;3.53;;;;;;;;;;4485506;28;20037;-61
2021/11/19 07:09:26;;;;;;;4.43;3.83;;;;;;;;;;4466841;28;20066;-61
2021/11/19 07:11:36;;;;;;;4.30;3.70;;;;;;;;;;4495121;28;20037;-61
2021/11/19 07:13:49;;;;;;;4.83;3.80;;;;;;;;;;4477685;28;20032;-61
2021/11/19 07:16:00;;;;;;;4.72;3.63;;;;;;;;;;4484729;28;20097;-61
2021/11/19 07:18:10;;;;;;;4.00;3.47;;;;;;;;;;4465171;28;20027;-61
2021/11/19 07:20:24;;;;;;;4.55;3.63;;;;;;;;;;4496518;28;20772;-61
2021/11/19 07:22:34;;;;;;;4.80;3.70;;;;;;;;;;4492581;28;20172;-61
2021/11/19 07:24:52;;;;;;;5.10;4.28;;;;;;;;;;4461303;28;20027;-61
2021/11/19 07:27:03;;;;;;;4.35;3.58;;;;;;;;;;4493691;28;20022;-61
2021/11/19 07:29:14;;;;;;;4.03;3.47;;;;;;;;;;4479226;28;20035;-61
2021/11/19 07:31:39;;;;;;;5.78;4.13;;;;;;;;;;4497749;28;20097;-61
2021/11/19 07:34:09;;;;;;;4.22;3.45;;;;;;;;;;4497029;28;20030;-62
2021/11/19 07:36:38;;;;;;;4.50;3.35;;;;;;;;;;4496117;28;20141;-63
2021/11/19 07:39:14;;;;;;;4.45;3.53;;;;;;;;;;4493021;28;20063;-61
2021/11/19 07:41:38;;;;;;;4.30;3.40;;;;;;;;;;4484342;28;20179;-61
2021/11/19 07:44:07;;;;;;;3.72;3.13;;;;;;;;;;4497358;28;20034;-61
2021/11/19 07:46:33;;;;;;;3.78;3.15;;;;;;;;;;4483309;28;20802;-62
2021/11/19 07:48:48;;;;;;;4.65;3.47;;;;;;;;;;4484694;28;20081;-63
2021/11/19 07:51:05;;;;;;;3.30;2.97;;;;;;;;;;4484657;28;20027;-62
2021/11/19 07:53:17;;;;;;;4.45;3.40;;;;;;;;;;4493982;28;20026;-62
2021/11/19 07:55:27;;;;;;;3.80;3.22;;;;;;;;;;4483925;28;20088;-62
2021/11/19 07:57:38;;;;;;;4.00;3.37;;;;;;;;;;4476637;28;20046;-62
2021/11/19 07:59:49;;;;;;;3.60;3.10;;;;;;;;;;4496006;28;20049;-62
2021/11/19 08:02:00;;;;;;;4.38;3.45;;;;;;;;;;4494899;28;20713;-62
2021/11/19 08:04:11;;;;;;;3.80;3.20;;;;;;;;;;4486045;28;20205;-62
2021/11/19 08:06:24;;;;;;;3.85;3.20;;;;;;;;;;4467382;28;20934;-62
2021/11/19 08:08:49;;;;;;;3.40;2.97;;;;;;;;;;4479347;28;20030;-62
2021/11/19 08:11:07;;;;;;;3.03;2.72;;;;;;;;;;4494179;28;20033;-62
2021/11/19 08:13:19;;;;;;;3.20;2.67;;;;;;;;;;4495112;28;20029;-62
2021/11/19 08:15:31;;;;;;;3.70;3.03;;;;;;;;;;4466102;28;20034;-61
2021/11/19 08:17:47;;;;;;;3.83;3.20;;;;;;;;;;4477388;28;20071;-62
2021/11/19 08:20:10;;;;;;;3.75;2.97;;;;;;;;;;4483538;28;20046;-62
2021/11/19 08:22:20;;;;;;;4.35;3.22;;;;;;;;;;4479958;28;20035;-62
2021/11/19 08:24:31;;;;;;;3.83;2.93;;;;;;;;;;4495261;28;20030;-62
2021/11/19 08:26:45;;;;;;;3.53;3.05;;;;;;;;;;4495625;28;20117;-62
2021/11/19 08:28:57;;;;;;;3.28;2.80;;;;;;;;;;4494504;28;20026;-62
2021/11/19 08:31:10;;;;;;;3.08;2.72;;;;;;;;;;4494110;28;20030;-62
2021/11/19 08:33:20;;;;;;;3.08;2.67;;;;;;;;;;4492720;28;20116;-62
2021/11/19 08:35:34;;;;;;;3.70;2.93;;;;;;;;;;4494404;28;20032;-62
2021/11/19 08:37:46;;;;;;;4.07;2.90;;;;;;;;;;4494060;28;20566;-62
2021/11/19 08:39:57;;;;;;;3.33;2.83;;;;;;;;;;4494126;28;21059;-62
2021/11/19 08:42:09;;;;;;;3.85;2.97;;;;;;;;;;4479078;28;20034;-62
2021/11/19 08:44:21;;;;;;;3.22;2.78;;;;;;;;;;4482651;28;20802;-61
2021/11/19 08:46:35;;;;;;;3.75;2.78;;;;;;;;;;4481869;28;20135;-62
2021/11/19 08:48:49;;;;;;;2.72;2.40;;;;;;;;;;4493435;28;20632;-59
2021/11/19 08:51:03;;;;;;;2.97;2.67;;;;;;;;;;4494368;28;20104;-61
2021/11/19 08:53:15;;;;;;;3.50;2.53;;;;;;;;;;4494033;28;20060;-61
2021/11/19 08:55:26;;;;;;;3.50;2.90;;;;;;;;;;4464427;28;20040;-61
2021/11/19 08:57:37;;;;;;;3.25;2.70;;;;;;;;;;4492150;28;20505;-61
2021/11/19 08:59:48;;;;;;;4.87;3.10;;;;;;;;;;4463238;28;20070;-61
2021/11/19 09:01:59;;;;;;;;;;;;;;;;;;4476919;28;20026;-61
2021/11/19 09:04:10;;;;;;;3.08;2.78;;;;;;;;;;4494201;28;20369;-61
2021/11/19 09:06:22;;;;;;;2.70;2.50;;;;;;;;;;4459339;28;20110;-61
2021/11/19 09:08:33;;;;;;;3.22;2.90;;;;;;;;;;4492983;28;20023;-61
2021/11/19 09:10:45;;;;;;;3.30;2.38;;;;;;;;;;4483613;28;20242;-61
2021/11/19 09:12:55;;;;;;;2.97;2.30;;;;;;;;;;4483872;28;20506;-61
2021/11/19 09:15:08;;;;;;;2.63;2.10;;;;;;;;;;4494163;28;20026;-61
2021/11/19 09:17:43;;;;;;;2.80;2.33;;;;;;;;;;4492994;28;20564;-62
2021/11/19 09:19:58;;;;;;;2.60;2.28;;;;;;;;;;4490780;28;20825;-62
2021/11/19 09:22:31;;;;;;;4.03;2.28;;;;;;;;;;4483848;28;20131;-62
2021/11/19 09:24:41;;;;;;;2.95;2.22;;;;;;;;;;4493426;28;20026;-62
2021/11/19 09:26:56;;;;;;;2.73;2.37;;;;;;;;;;4493013;28;20030;-62
2021/11/19 09:29:29;;;;;;;2.42;2.10;;;;;;;;;;4494079;28;20109;-62
2021/11/19 09:31:44;;;;;;;2.22;1.95;;;;;;;;;;4479456;28;20531;-62
2021/11/19 09:33:55;;;;;;;2.97;2.35;;;;;;;;;;4494460;28;20113;-62
2021/11/19 09:36:06;;;;;;;2.33;2.08;;;;;;;;;;4477704;28;20106;-62
2021/11/19 09:38:18;;;;;;;2.30;2.00;;;;;;;;;;4493524;28;20033;-62
2021/11/19 09:40:33;;;;;;;2.38;2.00;;;;;;;;;;4492619;28;20173;-62
2021/11/19 09:42:47;;;;;;;2.60;2.20;;;;;;;;;;4482309;28;20054;-62
2021/11/19 09:45:03;;;;;;;2.55;2.35;;;;;;;;;;4494428;28;20031;-61
2021/11/19 09:47:26;;;;;;;2.53;2.10;;;;;;;;;;4477464;28;20647;-61
2021/11/19 09:49:48;;;;;;;3.38;2.50;;;;;;;;;;4494045;28;20025;-61
2021/11/19 09:52:05;;;;;;;2.80;2.33;;;;;;;;;;4492862;28;20022;-61
2021/11/19 09:54:43;;;;;;;2.50;2.10;;;;;;;;;;4492072;28;20112;-61
2021/11/19 09:57:26;;;;;;;3.47;2.38;;;;;;;;;;4474660;28;20073;-65
2021/11/19 10:00:00;;;;;;;2.22;2.03;;;;;;;;;;4465396;28;20043;-64
2021/11/19 10:02:13;;;;;;;2.45;2.25;;;;;;;;;;4475156;28;20023;-63
2021/11/19 10:04:30;;;;;;;2.90;2.50;;;;;;;;;;4481646;28;20172;-65
2021/11/19 10:06:58;;;;;;;2.80;2.42;;;;;;;;;;4494364;28;20542;-66
2021/11/19 10:09:20;;;;;;;2.85;2.38;;;;;;;;;;4485761;28;20030;-65
2021/11/19 10:11:37;;;;;;;;;;;;;;;;;;4475830;28;20029;-61
2021/11/19 10:13:50;;;;;;;2.72;2.33;;;;;;;;;;4494437;28;19909;-61
2021/11/19 10:16:06;;;;;;;3.03;2.65;;;;;;;;;;4474818;28;20053;-63
2021/11/19 10:18:30;;;;;;;3.05;2.63;;;;;;;;;;4484399;28;20137;-63
2021/11/19 10:20:58;;;;;;;3.08;2.60;;;;;;;;;;4476211;28;20047;-63
2021/11/19 10:23:12;;;;;;;3.40;2.40;;;;;;;;;;4493698;28;20089;-63
2021/11/19 10:25:48;;;;;;;2.95;2.60;;;;;;;;;;4475251;28;20018;-62
2021/11/19 10:28:03;;;;;;;3.40;2.85;;;;;;;;;;4492369;28;20598;-63
2021/11/19 10:30:32;;;;;;;3.38;2.90;;;;;;;;;;4491183;28;20026;-63
2021/11/19 10:32:43;;;;;;;3.47;2.83;;;;;;;;;;4491258;28;20057;-62
2021/11/19 10:34:54;;;;;;;3.63;2.70;;;;;;;;;;4491607;28;20037;-63
2021/11/19 10:37:22;;;;;;;3.30;3.00;;;;;;;;;;4492983;28;20040;-63
2021/11/19 10:40:02;;;;;;;3.70;3.28;;;;;;;;;;4474834;28;20038;-62
2021/11/19 10:42:22;;;;;;;4.07;3.13;;;;;;;;;;4489968;28;20656;-62
2021/11/19 10:44:54;;;;;;;4.47;3.45;;;;;;;;;;4491193;28;20637;-63
2021/11/19 10:47:05;;;;;;;3.88;3.40;;;;;;;;;;4493086;28;20030;-62
2021/11/19 10:49:37;;;;;;;3.83;3.27;;;;;;;;;;4492094;28;20027;-62
2021/11/19 10:51:59;;;;;;;4.75;3.72;;;;;;;;;;4493408;28;20034;-63
2021/11/19 10:54:29;;;;;;;4.25;3.55;;;;;;;;;;4492191;28;20034;-62
2021/11/19 10:57:07;;;;;;;4.95;3.72;;;;;;;;;;4465588;28;20103;-63
2021/11/19 10:59:40;;;;;;;6.55;4.45;;;;;;;;;;4475918;28;20195;-63
2021/11/19 11:02:15;;;;;;;6.80;4.63;;;;;;;;;;4494458;28;21253;-60
2021/11/19 11:04:55;;;;;;;6.40;4.25;;;;;;;;;;4481984;28;20594;-62
2021/11/19 11:07:22;;;;;;;6.28;4.53;;;;;;;;;;4494585;28;20180;-62
2021/11/19 11:09:40;;;;;;;6.28;4.57;;;;;;;;;;4495309;28;20050;-63
2021/11/19 11:12:00;;;;;;;6.28;4.60;;;;;;;;;;4483071;28;20027;-62
2021/11/19 11:14:11;;;;;;;6.53;5.07;;;;;;;;;;4483171;28;20613;-63
2021/11/19 11:16:23;;;;;;;6.10;4.40;;;;;;;;;;4493942;28;20022;-63
2021/11/19 11:18:38;;;;;;;6.35;4.65;;;;;;;;;;4493797;28;20030;-63
2021/11/19 11:20:52;;;;;;;6.72;4.82;;;;;;;;;;4494844;28;20113;-63
2021/11/19 11:23:20;;;;;;;7.15;5.28;;;;;;;;;;4494755;28;20030;-63
2021/11/19 11:25:35;;;;;;;6.20;4.65;;;;;;;;;;4479081;28;20030;-65
2021/11/19 11:28:09;;;;;;;6.50;4.93;;;;;;;;;;4493956;28;20010;-63
2021/11/19 11:30:47;;;;;;;6.57;5.05;;;;;;;;;;4494007;28;20521;-65
2021/11/19 11:33:06;;;;;;;6.03;4.70;;;;;;;;;;4495013;28;20022;-67
2021/11/19 11:35:33;;;;;;;6.25;5.05;;;;;;;;;;4493916;28;20113;-65
2021/11/19 11:37:55;;;;;;;7.35;5.65;;;;;;;;;;4494523;28;20027;-63
2021/11/19 11:40:36;;;;;;;7.22;5.20;;;;;;;;;;4492273;28;20042;-62
2021/11/19 11:42:50;;;;;;;6.63;5.10;;;;;;;;;;4457700;28;20045;-62
2021/11/19 11:45:23;;;;;;;6.47;4.55;;;;;;;;;;4494783;28;20269;-62
2021/11/19 11:47:38;;;;;;;9.32;6.25;;;;;;;;;;4494657;28;20025;-62
2021/11/19 11:49:54;;;;;;;8.27;6.25;;;;;;;;;;4476974;28;20074;-62
2021/11/19 11:52:26;;;;;;;10.43;6.80;;;;;;;;;;4494931;28;20132;-62
2021/11/19 11:55:14;;;;;;;8.32;5.63;;;;;;;;;;4494059;28;20049;-62
2021/11/19 11:57:49;;;;;;;7.38;5.63;;;;;;;;;;4493453;28;20173;-63
2021/11/19 12:00:18;;;;;;;7.72;5.85;;;;;;;;;;4493442;28;20042;-63
2021/11/19 12:02:50;;;;;;;9.38;6.70;;;;;;;;;;4493485;28;20116;-63
2021/11/19 12:05:45;;;;;;;8.65;6.50;;;;;;;;;;4493258;28;20034;-63
2021/11/19 12:08:07;;;;;;;9.30;7.22;;;;;;;;;;4488767;28;20947;-65
2021/11/19 12:10:44;;;;;;;9.43;7.22;;;;;;;;;;4482211;28;20855;-63
2021/11/19 12:13:05;;;;;;;10.50;7.47;;;;;;;;;;4492605;28;20027;-63
2021/11/19 12:15:32;;;;;;;9.63;7.32;;;;;;;;;;4474968;28;21640;-63
2021/11/19 12:17:43;;;;;;;9.65;7.50;;;;;;;;;;4466814;28;20023;-64
2021/11/19 12:19:56;;;;;;;9.87;7.67;;;;;;;;;;4483643;28;20034;-63
2021/11/19 12:22:34;;;;;;;9.85;7.43;;;;;;;;;;4494942;28;20033;-66
2021/11/19 12:25:01;;;;;;;11.18;9.07;;;;;;;;;;4494840;28;20470;-63
2021/11/19 12:27:38;;;;;;;9.70;7.63;;;;;;;;;;4476934;28;20078;-61
2021/11/19 12:30:16;;;;;;;9.60;7.43;;;;;;;;;;4464389;28;20039;-63
2021/11/19 12:32:42;;;;;;;10.20;7.95;;;;;;;;;;4493029;28;20567;-63
2021/11/19 12:35:32;;;;;;;10.80;8.32;;;;;;;;;;4493755;28;20621;-65
2021/11/19 12:38:03;;;;;;;11.13;8.35;;;;;;;;;;4491944;28;20052;-63
2021/11/19 12:40:34;;;;;;;10.45;8.50;;;;;;;;;;4492949;28;20046;-63
2021/11/19 12:43:22;;;;;;;10.38;8.45;;;;;;;;;;4494255;28;20041;-63
2021/11/19 12:45:37;;;;;;;10.85;8.80;;;;;;;;;;4493922;28;20125;-64
2021/11/19 12:47:47;;;;;;;11.50;9.05;;;;;;;;;;4477756;28;20031;-63
2021/11/19 12:50:17;;;;;;;10.63;8.57;;;;;;;;;;4478104;28;20046;-64
2021/11/19 12:53:13;;;;;;;11.00;9.20;;;;;;;;;;4476211;28;20023;-63
2021/11/19 12:55:33;;;;;;;11.63;9.45;;;;;;;;;;4495294;28;20114;-63
2021/11/19 12:57:52;;;;;;;10.90;8.80;;;;;;;;;;4491016;28;20043;-68
2021/11/19 13:00:04;;;;;;;10.95;8.73;;;;;;;;;;4492059;28;20069;-68
2021/11/19 13:02:17;;;;;;;;;;;;;;;;;;4495570;28;20026;-66
2021/11/19 13:04:31;;;;;;;10.60;8.57;;;;;;;;;;4491546;28;19968;-68
2021/11/19 13:06:51;;;;;;;10.40;8.82;;;;;;;;;;4493532;28;20122;-66
2021/11/19 13:09:39;;;;;;;11.27;8.88;;;;;;;;;;4494915;28;20030;-67
2021/11/19 13:11:56;;;;;;;10.90;8.85;;;;;;;;;;4494205;28;20475;-67
2021/11/19 13:14:19;;;;;;;11.48;9.45;;;;;;;;;;4493671;28;20034;-66
2021/11/19 13:16:32;;;;;;;10.95;8.88;;;;;;;;;;4492652;28;20052;-69
2021/11/19 13:18:45;;;;;;;10.00;8.55;;;;;;;;;;4494404;28;20136;-66
2021/11/19 13:21:01;;;;;;;11.73;9.35;;;;;;;;;;4477732;28;20593;-65
2021/11/19 13:23:42;;;;;;;11.38;9.18;;;;;;;;;;4475883;28;20098;-65
2021/11/19 13:25:53;;;;;;;10.88;8.82;;;;;;;;;;4492945;28;20026;-68
2021/11/19 13:28:05;;;;;;;11.10;9.13;;;;;;;;;;4492141;28;20022;-69
2021/11/19 13:30:33;;;;;;;10.70;9.38;;;;;;;;;;4480505;28;20066;-65
2021/11/19 13:32:46;;;;;;;11.32;9.48;;;;;;;;;;4492980;28;20026;-67
2021/11/19 13:35:00;;;;;;;10.98;8.93;;;;;;;;;;4494164;28;20739;-67
2021/11/19 13:37:16;;;;;;;11.40;9.85;;;;;;;;;;4493506;28;20019;-63
2021/11/19 13:39:31;;;;;;;11.40;9.02;;;;;;;;;;4490040;28;20128;-66
2021/11/19 13:42:02;;;;;;;11.30;9.57;;;;;;;;;;4494014;28;20022;-65
2021/11/19 13:44:49;;;;;;;10.05;8.48;;;;;;;;;;4481177;28;20030;-66
2021/11/19 13:47:19;;;;;;;12.68;9.95;;;;;;;;;;4474581;28;20794;-62
2021/11/19 13:49:44;;;;;;;10.73;8.88;;;;;;;;;;4481495;28;20817;-65